sensor_id;sensor_type;location;lat;lon;timestamp;P1;durP1;ratioP1;P2;durP2;ratioP2
12956;SDS011;6543;48.836;10.092;2022-11-14T00:00:29;26.57;;;19.33;;
12956;SDS011;6543;48.836;10.092;2022-11-14T00:02:58;25.77;;;18.63;;
12956;SDS011;6543;48.836;10.092;2022-11-14T00:05:25;18.50;;;13.03;;
12956;SDS011;6543;48.836;10.092;2022-11-14T00:07:52;22.87;;;17.07;;
12956;SDS011;6543;48.836;10.092;2022-11-14T00:10:19;26.17;;;19.53;;
12956;SDS011;6543;48.836;10.092;2022-11-14T00:12:48;21.13;;;15.77;;
12956;SDS011;6543;48.836;10.092;2022-11-14T00:15:15;26.27;;;18.17;;
12956;SDS011;6543;48.836;10.092;2022-11-14T00:17:41;24.53;;;16.13;;
12956;SDS011;6543;48.836;10.092;2022-11-14T00:20:09;21.73;;;16.43;;
12956;SDS011;6543;48.836;10.092;2022-11-14T00:22:37;25.47;;;18.87;;
12956;SDS011;6543;48.836;10.092;2022-11-14T00:25:04;21.57;;;17.40;;
12956;SDS011;6543;48.836;10.092;2022-11-14T00:27:31;20.33;;;15.93;;
12956;SDS011;6543;48.836;10.092;2022-11-14T00:29:59;21.10;;;16.20;;
12956;SDS011;6543;48.836;10.092;2022-11-14T00:32:26;20.20;;;15.13;;
12956;SDS011;6543;48.836;10.092;2022-11-14T00:34:53;22.10;;;15.77;;
12956;SDS011;6543;48.836;10.092;2022-11-14T00:37:20;20.13;;;13.00;;
12956;SDS011;6543;48.836;10.092;2022-11-14T00:39:46;24.50;;;18.10;;
12956;SDS011;6543;48.836;10.092;2022-11-14T00:42:13;20.10;;;15.37;;
12956;SDS011;6543;48.836;10.092;2022-11-14T00:44:40;20.43;;;14.63;;
12956;SDS011;6543;48.836;10.092;2022-11-14T00:47:08;20.67;;;15.07;;
12956;SDS011;6543;48.836;10.092;2022-11-14T00:49:35;23.57;;;18.03;;
12956;SDS011;6543;48.836;10.092;2022-11-14T00:52:02;23.93;;;17.40;;
12956;SDS011;6543;48.836;10.092;2022-11-14T00:54:28;22.30;;;17.70;;
12956;SDS011;6543;48.836;10.092;2022-11-14T00:56:55;21.90;;;17.23;;
12956;SDS011;6543;48.836;10.092;2022-11-14T00:59:22;23.30;;;18.23;;
12956;SDS011;6543;48.836;10.092;2022-11-14T01:01:49;23.17;;;16.97;;
12956;SDS011;6543;48.836;10.092;2022-11-14T01:04:17;21.90;;;16.93;;
12956;SDS011;6543;48.836;10.092;2022-11-14T01:06:44;22.90;;;15.97;;
12956;SDS011;6543;48.836;10.092;2022-11-14T01:09:11;20.13;;;16.23;;
12956;SDS011;6543;48.836;10.092;2022-11-14T01:11:37;18.63;;;15.50;;
12956;SDS011;6543;48.836;10.092;2022-11-14T01:14:05;21.50;;;15.63;;
12956;SDS011;6543;48.836;10.092;2022-11-14T01:16:32;22.20;;;17.37;;
12956;SDS011;6543;48.836;10.092;2022-11-14T01:19:00;26.93;;;17.67;;
12956;SDS011;6543;48.836;10.092;2022-11-14T01:21:28;22.47;;;17.13;;
12956;SDS011;6543;48.836;10.092;2022-11-14T01:23:55;25.30;;;18.13;;
12956;SDS011;6543;48.836;10.092;2022-11-14T01:26:22;23.13;;;16.03;;
12956;SDS011;6543;48.836;10.092;2022-11-14T01:28:49;23.17;;;17.93;;
12956;SDS011;6543;48.836;10.092;2022-11-14T01:31:17;21.93;;;17.23;;
12956;SDS011;6543;48.836;10.092;2022-11-14T01:33:47;26.07;;;19.60;;
12956;SDS011;6543;48.836;10.092;2022-11-14T01:36:14;23.03;;;17.40;;
12956;SDS011;6543;48.836;10.092;2022-11-14T01:38:43;22.30;;;16.87;;
12956;SDS011;6543;48.836;10.092;2022-11-14T01:41:10;23.47;;;16.53;;
12956;SDS011;6543;48.836;10.092;2022-11-14T01:43:39;21.93;;;17.17;;
12956;SDS011;6543;48.836;10.092;2022-11-14T01:46:09;23.23;;;17.63;;
12956;SDS011;6543;48.836;10.092;2022-11-14T01:48:40;25.77;;;17.87;;
12956;SDS011;6543;48.836;10.092;2022-11-14T01:51:14;28.07;;;18.47;;
12956;SDS011;6543;48.836;10.092;2022-11-14T01:53:47;23.00;;;17.13;;
12956;SDS011;6543;48.836;10.092;2022-11-14T01:56:17;21.80;;;15.70;;
12956;SDS011;6543;48.836;10.092;2022-11-14T01:58:48;22.67;;;16.53;;
12956;SDS011;6543;48.836;10.092;2022-11-14T02:01:19;21.97;;;16.37;;
12956;SDS011;6543;48.836;10.092;2022-11-14T02:03:47;20.57;;;16.77;;
12956;SDS011;6543;48.836;10.092;2022-11-14T02:06:22;20.47;;;16.37;;
12956;SDS011;6543;48.836;10.092;2022-11-14T02:08:54;20.20;;;15.63;;
12956;SDS011;6543;48.836;10.092;2022-11-14T02:11:22;21.30;;;16.97;;
12956;SDS011;6543;48.836;10.092;2022-11-14T02:13:49;21.07;;;14.80;;
12956;SDS011;6543;48.836;10.092;2022-11-14T02:16:16;20.90;;;16.33;;
12956;SDS011;6543;48.836;10.092;2022-11-14T02:18:43;19.13;;;15.00;;
12956;SDS011;6543;48.836;10.092;2022-11-14T02:21:11;20.87;;;14.30;;
12956;SDS011;6543;48.836;10.092;2022-11-14T02:23:38;19.93;;;15.33;;
12956;SDS011;6543;48.836;10.092;2022-11-14T02:26:05;18.97;;;14.50;;
12956;SDS011;6543;48.836;10.092;2022-11-14T02:28:32;21.17;;;16.13;;
12956;SDS011;6543;48.836;10.092;2022-11-14T02:30:59;19.53;;;14.93;;
12956;SDS011;6543;48.836;10.092;2022-11-14T02:33:25;19.97;;;14.80;;
12956;SDS011;6543;48.836;10.092;2022-11-14T02:35:53;19.60;;;14.87;;
12956;SDS011;6543;48.836;10.092;2022-11-14T02:38:21;17.93;;;15.10;;
12956;SDS011;6543;48.836;10.092;2022-11-14T02:40:48;18.53;;;14.97;;
12956;SDS011;6543;48.836;10.092;2022-11-14T02:43:14;23.17;;;16.93;;
12956;SDS011;6543;48.836;10.092;2022-11-14T02:45:41;20.93;;;15.53;;
12956;SDS011;6543;48.836;10.092;2022-11-14T02:48:08;18.30;;;14.43;;
12956;SDS011;6543;48.836;10.092;2022-11-14T02:50:35;21.77;;;14.43;;
12956;SDS011;6543;48.836;10.092;2022-11-14T02:53:02;19.73;;;15.43;;
12956;SDS011;6543;48.836;10.092;2022-11-14T02:55:30;19.23;;;14.53;;
12956;SDS011;6543;48.836;10.092;2022-11-14T02:57:57;19.13;;;14.83;;
12956;SDS011;6543;48.836;10.092;2022-11-14T03:00:24;21.63;;;16.70;;
12956;SDS011;6543;48.836;10.092;2022-11-14T03:02:51;20.33;;;15.20;;
12956;SDS011;6543;48.836;10.092;2022-11-14T03:05:18;18.90;;;15.30;;
12956;SDS011;6543;48.836;10.092;2022-11-14T03:07:45;19.80;;;15.47;;
12956;SDS011;6543;48.836;10.092;2022-11-14T03:10:12;20.77;;;14.77;;
12956;SDS011;6543;48.836;10.092;2022-11-14T03:12:40;20.67;;;14.60;;
12956;SDS011;6543;48.836;10.092;2022-11-14T03:15:08;21.10;;;15.67;;
12956;SDS011;6543;48.836;10.092;2022-11-14T03:17:35;20.50;;;15.63;;
12956;SDS011;6543;48.836;10.092;2022-11-14T03:20:02;19.83;;;15.20;;
12956;SDS011;6543;48.836;10.092;2022-11-14T03:22:29;20.27;;;14.73;;
12956;SDS011;6543;48.836;10.092;2022-11-14T03:24:56;20.37;;;16.37;;
12956;SDS011;6543;48.836;10.092;2022-11-14T03:27:23;21.43;;;17.03;;
12956;SDS011;6543;48.836;10.092;2022-11-14T03:29:51;23.63;;;17.63;;
12956;SDS011;6543;48.836;10.092;2022-11-14T03:32:18;23.53;;;18.37;;
12956;SDS011;6543;48.836;10.092;2022-11-14T03:34:45;21.17;;;16.87;;
12956;SDS011;6543;48.836;10.092;2022-11-14T03:37:11;20.03;;;14.13;;
12956;SDS011;6543;48.836;10.092;2022-11-14T03:39:38;23.30;;;18.23;;
12956;SDS011;6543;48.836;10.092;2022-11-14T03:42:05;21.27;;;15.80;;
12956;SDS011;6543;48.836;10.092;2022-11-14T03:44:32;24.10;;;18.43;;
12956;SDS011;6543;48.836;10.092;2022-11-14T03:47:00;23.93;;;18.33;;
12956;SDS011;6543;48.836;10.092;2022-11-14T03:49:27;22.10;;;15.50;;
12956;SDS011;6543;48.836;10.092;2022-11-14T03:51:54;19.83;;;15.40;;
12956;SDS011;6543;48.836;10.092;2022-11-14T03:54:20;26.73;;;18.00;;
12956;SDS011;6543;48.836;10.092;2022-11-14T03:56:47;26.47;;;19.50;;
12956;SDS011;6543;48.836;10.092;2022-11-14T03:59:14;27.17;;;19.37;;
12956;SDS011;6543;48.836;10.092;2022-11-14T04:01:41;27.93;;;19.87;;
12956;SDS011;6543;48.836;10.092;2022-11-14T04:04:10;26.53;;;19.47;;
12956;SDS011;6543;48.836;10.092;2022-11-14T04:06:37;23.60;;;18.50;;
12956;SDS011;6543;48.836;10.092;2022-11-14T04:09:04;28.53;;;19.43;;
12956;SDS011;6543;48.836;10.092;2022-11-14T04:11:31;23.73;;;19.37;;
12956;SDS011;6543;48.836;10.092;2022-11-14T04:13:58;24.97;;;18.53;;
12956;SDS011;6543;48.836;10.092;2022-11-14T04:16:25;26.33;;;20.10;;
12956;SDS011;6543;48.836;10.092;2022-11-14T04:18:51;22.87;;;18.43;;
12956;SDS011;6543;48.836;10.092;2022-11-14T04:21:20;25.13;;;19.13;;
12956;SDS011;6543;48.836;10.092;2022-11-14T04:23:46;22.83;;;18.57;;
12956;SDS011;6543;48.836;10.092;2022-11-14T04:26:13;22.43;;;18.13;;
12956;SDS011;6543;48.836;10.092;2022-11-14T04:28:40;22.20;;;18.20;;
12956;SDS011;6543;48.836;10.092;2022-11-14T04:31:07;27.40;;;19.27;;
12956;SDS011;6543;48.836;10.092;2022-11-14T04:33:34;24.77;;;17.60;;
12956;SDS011;6543;48.836;10.092;2022-11-14T04:36:01;21.27;;;18.77;;
12956;SDS011;6543;48.836;10.092;2022-11-14T04:38:29;23.10;;;17.37;;
12956;SDS011;6543;48.836;10.092;2022-11-14T04:40:55;23.83;;;17.20;;
12956;SDS011;6543;48.836;10.092;2022-11-14T04:43:22;21.63;;;17.13;;
12956;SDS011;6543;48.836;10.092;2022-11-14T04:45:49;22.90;;;17.20;;
12956;SDS011;6543;48.836;10.092;2022-11-14T04:48:16;21.17;;;16.97;;
12956;SDS011;6543;48.836;10.092;2022-11-14T04:50:43;21.50;;;17.03;;
12956;SDS011;6543;48.836;10.092;2022-11-14T04:53:10;21.93;;;17.87;;
12956;SDS011;6543;48.836;10.092;2022-11-14T04:55:38;25.80;;;18.23;;
12956;SDS011;6543;48.836;10.092;2022-11-14T04:58:05;25.13;;;18.37;;
12956;SDS011;6543;48.836;10.092;2022-11-14T05:00:32;24.30;;;17.87;;
12956;SDS011;6543;48.836;10.092;2022-11-14T05:02:59;26.87;;;18.63;;
12956;SDS011;6543;48.836;10.092;2022-11-14T05:05:26;24.40;;;18.13;;
12956;SDS011;6543;48.836;10.092;2022-11-14T05:07:53;27.00;;;18.10;;
12956;SDS011;6543;48.836;10.092;2022-11-14T05:10:19;23.20;;;17.27;;
12956;SDS011;6543;48.836;10.092;2022-11-14T05:12:48;25.10;;;18.27;;
12956;SDS011;6543;48.836;10.092;2022-11-14T05:15:18;26.40;;;19.43;;
12956;SDS011;6543;48.836;10.092;2022-11-14T05:17:45;24.57;;;16.97;;
12956;SDS011;6543;48.836;10.092;2022-11-14T05:20:12;20.33;;;16.63;;
12956;SDS011;6543;48.836;10.092;2022-11-14T05:22:38;21.53;;;14.17;;
12956;SDS011;6543;48.836;10.092;2022-11-14T05:25:06;17.57;;;13.53;;
12956;SDS011;6543;48.836;10.092;2022-11-14T05:27:33;17.33;;;13.70;;
12956;SDS011;6543;48.836;10.092;2022-11-14T05:30:02;16.20;;;13.30;;
12956;SDS011;6543;48.836;10.092;2022-11-14T05:32:29;17.53;;;13.70;;
12956;SDS011;6543;48.836;10.092;2022-11-14T05:34:56;17.63;;;14.37;;
12956;SDS011;6543;48.836;10.092;2022-11-14T05:37:23;18.23;;;15.07;;
12956;SDS011;6543;48.836;10.092;2022-11-14T05:39:49;15.80;;;13.80;;
12956;SDS011;6543;48.836;10.092;2022-11-14T05:42:16;17.13;;;13.47;;
12956;SDS011;6543;48.836;10.092;2022-11-14T05:44:43;16.13;;;13.40;;
12956;SDS011;6543;48.836;10.092;2022-11-14T05:47:11;15.40;;;13.63;;
12956;SDS011;6543;48.836;10.092;2022-11-14T05:49:38;13.90;;;11.23;;
12956;SDS011;6543;48.836;10.092;2022-11-14T05:52:05;15.97;;;12.30;;
12956;SDS011;6543;48.836;10.092;2022-11-14T05:54:32;16.27;;;13.13;;
12956;SDS011;6543;48.836;10.092;2022-11-14T05:56:58;16.20;;;14.60;;
12956;SDS011;6543;48.836;10.092;2022-11-14T05:59:25;16.40;;;13.23;;
12956;SDS011;6543;48.836;10.092;2022-11-14T06:01:52;15.93;;;13.60;;
12956;SDS011;6543;48.836;10.092;2022-11-14T06:04:20;18.90;;;12.40;;
12956;SDS011;6543;48.836;10.092;2022-11-14T06:06:48;15.57;;;12.60;;
12956;SDS011;6543;48.836;10.092;2022-11-14T06:09:14;15.90;;;12.97;;
12956;SDS011;6543;48.836;10.092;2022-11-14T06:11:41;14.80;;;12.87;;
12956;SDS011;6543;48.836;10.092;2022-11-14T06:14:09;16.80;;;12.83;;
12956;SDS011;6543;48.836;10.092;2022-11-14T06:16:36;15.30;;;12.83;;
12956;SDS011;6543;48.836;10.092;2022-11-14T06:19:03;16.57;;;13.80;;
12956;SDS011;6543;48.836;10.092;2022-11-14T06:21:31;20.53;;;14.67;;
12956;SDS011;6543;48.836;10.092;2022-11-14T06:23:58;18.80;;;13.03;;
12956;SDS011;6543;48.836;10.092;2022-11-14T06:26:26;17.37;;;13.80;;
12956;SDS011;6543;48.836;10.092;2022-11-14T06:28:54;16.93;;;12.67;;
12956;SDS011;6543;48.836;10.092;2022-11-14T06:31:22;17.57;;;13.87;;
12956;SDS011;6543;48.836;10.092;2022-11-14T06:33:50;19.77;;;14.17;;
12956;SDS011;6543;48.836;10.092;2022-11-14T06:36:17;21.20;;;14.10;;
12956;SDS011;6543;48.836;10.092;2022-11-14T06:38:45;19.37;;;14.53;;
12956;SDS011;6543;48.836;10.092;2022-11-14T06:41:13;17.47;;;14.00;;
12956;SDS011;6543;48.836;10.092;2022-11-14T06:43:41;17.67;;;12.37;;
12956;SDS011;6543;48.836;10.092;2022-11-14T06:46:10;22.90;;;15.53;;
12956;SDS011;6543;48.836;10.092;2022-11-14T06:48:38;18.77;;;14.20;;
12956;SDS011;6543;48.836;10.092;2022-11-14T06:51:05;28.43;;;15.50;;
12956;SDS011;6543;48.836;10.092;2022-11-14T06:53:33;21.20;;;15.67;;
12956;SDS011;6543;48.836;10.092;2022-11-14T06:56:02;19.53;;;15.27;;
12956;SDS011;6543;48.836;10.092;2022-11-14T06:58:32;18.77;;;15.70;;
12956;SDS011;6543;48.836;10.092;2022-11-14T07:01:03;19.43;;;15.37;;
12956;SDS011;6543;48.836;10.092;2022-11-14T07:03:31;22.97;;;15.87;;
12956;SDS011;6543;48.836;10.092;2022-11-14T07:05:59;23.53;;;15.83;;
12956;SDS011;6543;48.836;10.092;2022-11-14T07:08:26;20.40;;;15.77;;
12956;SDS011;6543;48.836;10.092;2022-11-14T07:10:53;17.93;;;13.97;;
12956;SDS011;6543;48.836;10.092;2022-11-14T07:13:21;18.67;;;14.77;;
12956;SDS011;6543;48.836;10.092;2022-11-14T07:15:48;19.03;;;15.80;;
12956;SDS011;6543;48.836;10.092;2022-11-14T07:18:16;19.53;;;14.87;;
12956;SDS011;6543;48.836;10.092;2022-11-14T07:20:43;19.03;;;14.83;;
12956;SDS011;6543;48.836;10.092;2022-11-14T07:23:10;17.33;;;13.37;;
12956;SDS011;6543;48.836;10.092;2022-11-14T07:25:36;16.70;;;14.73;;
12956;SDS011;6543;48.836;10.092;2022-11-14T07:28:03;17.07;;;14.03;;
12956;SDS011;6543;48.836;10.092;2022-11-14T07:30:32;18.77;;;13.97;;
12956;SDS011;6543;48.836;10.092;2022-11-14T07:32:59;16.00;;;14.30;;
12956;SDS011;6543;48.836;10.092;2022-11-14T07:35:26;16.80;;;14.10;;
12956;SDS011;6543;48.836;10.092;2022-11-14T07:37:57;19.23;;;13.63;;
12956;SDS011;6543;48.836;10.092;2022-11-14T07:40:27;17.87;;;13.67;;
12956;SDS011;6543;48.836;10.092;2022-11-14T07:42:56;15.27;;;12.00;;
12956;SDS011;6543;48.836;10.092;2022-11-14T07:45:23;16.80;;;12.87;;
12956;SDS011;6543;48.836;10.092;2022-11-14T07:47:54;13.73;;;12.30;;
12956;SDS011;6543;48.836;10.092;2022-11-14T07:50:21;15.20;;;12.33;;
12956;SDS011;6543;48.836;10.092;2022-11-14T07:52:49;15.90;;;13.10;;
12956;SDS011;6543;48.836;10.092;2022-11-14T07:55:16;16.53;;;12.77;;
12956;SDS011;6543;48.836;10.092;2022-11-14T07:57:43;15.90;;;12.67;;
12956;SDS011;6543;48.836;10.092;2022-11-14T08:00:10;20.23;;;13.80;;
12956;SDS011;6543;48.836;10.092;2022-11-14T08:02:38;17.47;;;13.53;;
12956;SDS011;6543;48.836;10.092;2022-11-14T08:05:06;17.20;;;14.13;;
12956;SDS011;6543;48.836;10.092;2022-11-14T08:07:33;17.60;;;13.80;;
12956;SDS011;6543;48.836;10.092;2022-11-14T08:10:00;18.53;;;13.83;;
12956;SDS011;6543;48.836;10.092;2022-11-14T08:12:27;18.97;;;13.13;;
12956;SDS011;6543;48.836;10.092;2022-11-14T08:14:54;13.63;;;11.90;;
12956;SDS011;6543;48.836;10.092;2022-11-14T08:17:21;16.07;;;12.87;;
12956;SDS011;6543;48.836;10.092;2022-11-14T08:19:48;13.98;;;12.57;;
12956;SDS011;6543;48.836;10.092;2022-11-14T08:22:16;13.23;;;11.27;;
12956;SDS011;6543;48.836;10.092;2022-11-14T08:24:43;15.23;;;12.10;;
12956;SDS011;6543;48.836;10.092;2022-11-14T08:27:10;14.00;;;12.17;;
12956;SDS011;6543;48.836;10.092;2022-11-14T08:29:37;17.20;;;12.33;;
12956;SDS011;6543;48.836;10.092;2022-11-14T08:32:04;19.20;;;12.90;;
12956;SDS011;6543;48.836;10.092;2022-11-14T08:34:31;14.83;;;12.33;;
12956;SDS011;6543;48.836;10.092;2022-11-14T08:36:57;16.57;;;12.93;;
12956;SDS011;6543;48.836;10.092;2022-11-14T08:39:27;16.30;;;12.70;;
12956;SDS011;6543;48.836;10.092;2022-11-14T08:41:54;16.47;;;12.50;;
12956;SDS011;6543;48.836;10.092;2022-11-14T08:44:21;15.67;;;11.27;;
12956;SDS011;6543;48.836;10.092;2022-11-14T08:46:48;16.63;;;12.33;;
12956;SDS011;6543;48.836;10.092;2022-11-14T08:49:15;14.03;;;11.50;;
12956;SDS011;6543;48.836;10.092;2022-11-14T08:51:42;14.40;;;12.23;;
12956;SDS011;6543;48.836;10.092;2022-11-14T08:54:09;18.17;;;11.27;;
12956;SDS011;6543;48.836;10.092;2022-11-14T08:56:37;13.60;;;11.20;;
12956;SDS011;6543;48.836;10.092;2022-11-14T08:59:04;14.33;;;10.70;;
12956;SDS011;6543;48.836;10.092;2022-11-14T09:01:31;13.43;;;11.13;;
12956;SDS011;6543;48.836;10.092;2022-11-14T09:03:58;14.97;;;11.60;;
12956;SDS011;6543;48.836;10.092;2022-11-14T09:06:25;14.93;;;11.97;;
12956;SDS011;6543;48.836;10.092;2022-11-14T09:08:52;16.33;;;12.17;;
12956;SDS011;6543;48.836;10.092;2022-11-14T09:11:19;16.13;;;10.37;;
12956;SDS011;6543;48.836;10.092;2022-11-14T09:13:47;17.97;;;11.70;;
12956;SDS011;6543;48.836;10.092;2022-11-14T09:16:14;17.43;;;12.27;;
12956;SDS011;6543;48.836;10.092;2022-11-14T09:18:41;19.30;;;13.40;;
12956;SDS011;6543;48.836;10.092;2022-11-14T09:21:09;15.77;;;12.67;;
12956;SDS011;6543;48.836;10.092;2022-11-14T09:23:36;13.47;;;10.43;;
12956;SDS011;6543;48.836;10.092;2022-11-14T09:26:03;19.80;;;12.67;;
12956;SDS011;6543;48.836;10.092;2022-11-14T09:28:31;20.97;;;12.77;;
12956;SDS011;6543;48.836;10.092;2022-11-14T09:31:03;14.90;;;11.20;;
12956;SDS011;6543;48.836;10.092;2022-11-14T09:33:30;13.83;;;10.70;;
12956;SDS011;6543;48.836;10.092;2022-11-14T09:35:57;15.20;;;11.07;;
12956;SDS011;6543;48.836;10.092;2022-11-14T09:38:25;14.73;;;11.40;;
12956;SDS011;6543;48.836;10.092;2022-11-14T09:40:56;14.40;;;10.23;;
12956;SDS011;6543;48.836;10.092;2022-11-14T09:43:40;14.60;;;9.73;;
12956;SDS011;6543;48.836;10.092;2022-11-14T09:46:19;11.63;;;9.60;;
12956;SDS011;6543;48.836;10.092;2022-11-14T09:48:48;13.67;;;10.63;;
12956;SDS011;6543;48.836;10.092;2022-11-14T09:51:18;14.90;;;10.67;;
12956;SDS011;6543;48.836;10.092;2022-11-14T09:53:47;13.10;;;10.10;;
12956;SDS011;6543;48.836;10.092;2022-11-14T09:56:19;14.00;;;10.40;;
12956;SDS011;6543;48.836;10.092;2022-11-14T09:58:49;12.83;;;9.83;;
12956;SDS011;6543;48.836;10.092;2022-11-14T10:01:18;16.57;;;10.00;;
12956;SDS011;6543;48.836;10.092;2022-11-14T10:03:57;13.23;;;10.23;;
12956;SDS011;6543;48.836;10.092;2022-11-14T10:06:28;12.27;;;9.90;;
12956;SDS011;6543;48.836;10.092;2022-11-14T10:09:09;15.07;;;10.13;;
12956;SDS011;6543;48.836;10.092;2022-11-14T10:11:58;17.07;;;10.07;;
12956;SDS011;6543;48.836;10.092;2022-11-14T10:14:40;15.43;;;11.03;;
12956;SDS011;6543;48.836;10.092;2022-11-14T10:17:37;13.00;;;10.23;;
12956;SDS011;6543;48.836;10.092;2022-11-14T10:20:22;12.50;;;9.47;;
12956;SDS011;6543;48.836;10.092;2022-11-14T10:23:02;15.07;;;11.20;;
12956;SDS011;6543;48.836;10.092;2022-11-14T10:25:41;14.67;;;10.80;;
12956;SDS011;6543;48.836;10.092;2022-11-14T10:28:29;14.90;;;10.27;;
12956;SDS011;6543;48.836;10.092;2022-11-14T10:31:06;22.47;;;10.80;;
12956;SDS011;6543;48.836;10.092;2022-11-14T10:33:47;12.30;;;9.30;;
12956;SDS011;6543;48.836;10.092;2022-11-14T10:36:27;12.90;;;9.33;;
12956;SDS011;6543;48.836;10.092;2022-11-14T10:39:09;12.37;;;9.57;;
12956;SDS011;6543;48.836;10.092;2022-11-14T10:41:40;12.90;;;10.23;;
12956;SDS011;6543;48.836;10.092;2022-11-14T10:44:09;12.43;;;9.97;;
12956;SDS011;6543;48.836;10.092;2022-11-14T10:46:43;11.17;;;9.93;;
12956;SDS011;6543;48.836;10.092;2022-11-14T10:49:16;15.67;;;11.97;;
12956;SDS011;6543;48.836;10.092;2022-11-14T10:51:46;16.87;;;11.53;;
12956;SDS011;6543;48.836;10.092;2022-11-14T10:54:18;15.73;;;10.93;;
12956;SDS011;6543;48.836;10.092;2022-11-14T10:56:51;18.37;;;11.07;;
12956;SDS011;6543;48.836;10.092;2022-11-14T10:59:19;15.68;;;13.10;;
12956;SDS011;6543;48.836;10.092;2022-11-14T11:01:52;13.20;;;11.70;;
12956;SDS011;6543;48.836;10.092;2022-11-14T11:04:23;15.38;;;11.90;;
12956;SDS011;6543;48.836;10.092;2022-11-14T11:06:52;15.20;;;11.20;;
12956;SDS011;6543;48.836;10.092;2022-11-14T11:09:21;15.40;;;12.10;;
12956;SDS011;6543;48.836;10.092;2022-11-14T11:12:07;16.87;;;12.23;;
12956;SDS011;6543;48.836;10.092;2022-11-14T11:14:40;13.90;;;11.07;;
12956;SDS011;6543;48.836;10.092;2022-11-14T11:17:18;13.03;;;10.67;;
12956;SDS011;6543;48.836;10.092;2022-11-14T11:19:48;22.13;;;11.63;;
12956;SDS011;6543;48.836;10.092;2022-11-14T11:22:26;11.10;;;9.20;;
12956;SDS011;6543;48.836;10.092;2022-11-14T11:25:01;12.80;;;10.00;;
12956;SDS011;6543;48.836;10.092;2022-11-14T11:27:28;14.27;;;10.23;;
12956;SDS011;6543;48.836;10.092;2022-11-14T11:32:43;15.20;;;11.07;;
12956;SDS011;6543;48.836;10.092;2022-11-14T11:35:12;14.37;;;11.03;;
12956;SDS011;6543;48.836;10.092;2022-11-14T11:37:43;16.77;;;11.73;;
12956;SDS011;6543;48.836;10.092;2022-11-14T11:40:14;16.37;;;10.77;;
12956;SDS011;6543;48.836;10.092;2022-11-14T11:42:44;13.60;;;10.33;;
12956;SDS011;6543;48.836;10.092;2022-11-14T11:45:16;14.77;;;11.07;;
12956;SDS011;6543;48.836;10.092;2022-11-14T11:47:45;13.57;;;10.40;;
12956;SDS011;6543;48.836;10.092;2022-11-14T11:50:19;12.17;;;8.77;;
12956;SDS011;6543;48.836;10.092;2022-11-14T11:52:49;11.53;;;9.07;;
12956;SDS011;6543;48.836;10.092;2022-11-14T11:55:24;13.83;;;9.03;;
12956;SDS011;6543;48.836;10.092;2022-11-14T11:57:55;13.57;;;9.83;;
12956;SDS011;6543;48.836;10.092;2022-11-14T12:00:28;12.50;;;9.67;;
12956;SDS011;6543;48.836;10.092;2022-11-14T12:02:55;10.60;;;8.87;;
12956;SDS011;6543;48.836;10.092;2022-11-14T12:05:27;10.20;;;8.03;;
12956;SDS011;6543;48.836;10.092;2022-11-14T12:08:05;11.73;;;8.83;;
12956;SDS011;6543;48.836;10.092;2022-11-14T12:10:37;10.87;;;9.13;;
12956;SDS011;6543;48.836;10.092;2022-11-14T12:16:24;8.70;;;7.57;;
12956;SDS011;6543;48.836;10.092;2022-11-14T12:19:12;10.27;;;7.43;;
12956;SDS011;6543;48.836;10.092;2022-11-14T12:25:03;9.57;;;6.20;;
12956;SDS011;6543;48.836;10.092;2022-11-14T12:27:53;8.30;;;6.17;;
12956;SDS011;6543;48.836;10.092;2022-11-14T12:30:30;7.50;;;6.67;;
12956;SDS011;6543;48.836;10.092;2022-11-14T12:32:59;8.00;;;6.50;;
12956;SDS011;6543;48.836;10.092;2022-11-14T12:35:30;9.27;;;6.67;;
12956;SDS011;6543;48.836;10.092;2022-11-14T12:38:01;8.97;;;5.70;;
12956;SDS011;6543;48.836;10.092;2022-11-14T12:40:30;10.80;;;7.10;;
12956;SDS011;6543;48.836;10.092;2022-11-14T12:43:01;8.77;;;6.77;;
12956;SDS011;6543;48.836;10.092;2022-11-14T12:48:22;11.87;;;6.93;;
12956;SDS011;6543;48.836;10.092;2022-11-14T12:50:58;9.73;;;7.70;;
12956;SDS011;6543;48.836;10.092;2022-11-14T12:53:37;15.40;;;8.90;;
12956;SDS011;6543;48.836;10.092;2022-11-14T12:59:15;12.17;;;6.27;;
12956;SDS011;6543;48.836;10.092;2022-11-14T13:01:58;11.40;;;6.57;;
12956;SDS011;6543;48.836;10.092;2022-11-14T13:04:51;10.37;;;6.07;;
12956;SDS011;6543;48.836;10.092;2022-11-14T13:07:38;17.80;;;7.83;;
12956;SDS011;6543;48.836;10.092;2022-11-14T13:10:14;8.73;;;6.18;;
12956;SDS011;6543;48.836;10.092;2022-11-14T13:12:55;9.87;;;5.17;;
12956;SDS011;6543;48.836;10.092;2022-11-14T13:15:51;6.03;;;4.93;;
12956;SDS011;6543;48.836;10.092;2022-11-14T13:18:48;6.50;;;4.30;;
12956;SDS011;6543;48.836;10.092;2022-11-14T13:21:35;6.57;;;5.00;;
12956;SDS011;6543;48.836;10.092;2022-11-14T13:24:11;7.23;;;4.27;;
12956;SDS011;6543;48.836;10.092;2022-11-14T13:26:42;5.80;;;4.10;;
12956;SDS011;6543;48.836;10.092;2022-11-14T13:35:32;9.70;;;4.23;;
12956;SDS011;6543;48.836;10.092;2022-11-14T13:38:19;6.67;;;4.00;;
12956;SDS011;6543;48.836;10.092;2022-11-14T13:41:16;4.33;;;2.87;;
12956;SDS011;6543;48.836;10.092;2022-11-14T13:44:05;8.63;;;3.33;;
12956;SDS011;6543;48.836;10.092;2022-11-14T13:46:53;6.03;;;4.10;;
12956;SDS011;6543;48.836;10.092;2022-11-14T13:49:35;4.80;;;3.13;;
12956;SDS011;6543;48.836;10.092;2022-11-14T13:52:16;5.27;;;3.40;;
12956;SDS011;6543;48.836;10.092;2022-11-14T13:54:44;4.30;;;2.60;;
12956;SDS011;6543;48.836;10.092;2022-11-14T13:57:14;4.77;;;2.77;;
12956;SDS011;6543;48.836;10.092;2022-11-14T13:59:57;3.77;;;3.00;;
12956;SDS011;6543;48.836;10.092;2022-11-14T14:05:28;3.20;;;2.37;;
12956;SDS011;6543;48.836;10.092;2022-11-14T14:08:04;4.30;;;2.20;;
12956;SDS011;6543;48.836;10.092;2022-11-14T14:10:40;2.57;;;2.37;;
12956;SDS011;6543;48.836;10.092;2022-11-14T14:13:15;2.20;;;2.00;;
12956;SDS011;6543;48.836;10.092;2022-11-14T14:15:54;2.90;;;2.40;;
12956;SDS011;6543;48.836;10.092;2022-11-14T14:18:33;3.30;;;2.00;;
12956;SDS011;6543;48.836;10.092;2022-11-14T14:21:11;3.50;;;2.20;;
12956;SDS011;6543;48.836;10.092;2022-11-14T14:23:52;2.90;;;2.23;;
12956;SDS011;6543;48.836;10.092;2022-11-14T14:26:28;3.47;;;1.67;;
12956;SDS011;6543;48.836;10.092;2022-11-14T14:29:05;6.93;;;2.00;;
12956;SDS011;6543;48.836;10.092;2022-11-14T14:31:45;3.20;;;1.90;;
12956;SDS011;6543;48.836;10.092;2022-11-14T14:34:19;4.77;;;1.83;;
12956;SDS011;6543;48.836;10.092;2022-11-14T14:36:48;4.27;;;2.53;;
12956;SDS011;6543;48.836;10.092;2022-11-14T14:39:18;3.80;;;1.93;;
12956;SDS011;6543;48.836;10.092;2022-11-14T14:41:46;1.90;;;1.57;;
12956;SDS011;6543;48.836;10.092;2022-11-14T14:44:19;4.00;;;2.07;;
12956;SDS011;6543;48.836;10.092;2022-11-14T14:46:50;2.10;;;1.63;;
12956;SDS011;6543;48.836;10.092;2022-11-14T14:49:19;2.53;;;1.67;;
12956;SDS011;6543;48.836;10.092;2022-11-14T14:51:47;2.20;;;1.87;;
12956;SDS011;6543;48.836;10.092;2022-11-14T14:54:18;1.30;;;1.20;;
12956;SDS011;6543;48.836;10.092;2022-11-14T14:56:53;3.30;;;1.40;;
12956;SDS011;6543;48.836;10.092;2022-11-14T14:59:24;2.83;;;1.90;;
12956;SDS011;6543;48.836;10.092;2022-11-14T15:01:53;1.90;;;1.37;;
12956;SDS011;6543;48.836;10.092;2022-11-14T15:04:22;2.83;;;1.37;;
12956;SDS011;6543;48.836;10.092;2022-11-14T15:06:51;2.87;;;1.20;;